createdAt,value
2016-04-03T00:00:07.087Z,33.31
2016-04-03T00:01:06.825Z,33.5
2016-04-03T00:02:06.780Z,33.48
2016-04-03T00:03:06.736Z,33.4
2016-04-03T00:04:06.692Z,33.48
2016-04-03T00:05:06.647Z,33.59
2016-04-03T00:06:06.603Z,33.5
2016-04-03T00:07:06.559Z,33.5
2016-04-03T00:08:06.547Z,33.48
2016-04-03T00:09:06.455Z,33.67
2016-04-03T00:10:09.411Z,33.69
2016-04-03T00:11:06.382Z,33.88
2016-04-03T00:12:09.369Z,33.59
2016-04-03T00:13:06.278Z,33.69
2016-04-03T00:14:06.235Z,33.69
2016-04-03T00:15:09.205Z,33.98
2016-04-03T00:16:06.130Z,34.06
2016-04-03T00:17:06.086Z,33.48
2016-04-03T00:18:06.246Z,33.59
2016-04-03T00:19:05.999Z,33.67
2016-04-03T00:20:05.954Z,33.86
2016-04-03T00:21:08.910Z,33.86
2016-04-03T00:22:05.866Z,33.77
2016-04-03T00:23:05.821Z,33.69
2016-04-03T00:24:05.762Z,33.67
2016-04-03T00:25:05.732Z,33.86
2016-04-03T00:26:05.689Z,33.59
2016-04-03T00:27:05.645Z,33.67
2016-04-03T00:28:05.585Z,33.58
2016-04-03T00:29:05.541Z,33.96
2016-04-03T00:30:11.496Z,33.59
2016-04-03T00:31:05.437Z,33.58
2016-04-03T00:32:05.392Z,34.06
2016-04-03T00:33:05.348Z,34.06
2016-04-03T00:34:05.289Z,33.77
2016-04-03T00:35:05.259Z,34.17
2016-04-03T00:36:08.215Z,33.48
2016-04-03T00:37:05.171Z,33.86
2016-04-03T00:38:05.111Z,33.67
2016-04-03T00:39:05.067Z,33.77
2016-04-03T00:40:08.023Z,33.58
2016-04-03T00:41:04.995Z,33.67
2016-04-03T00:42:04.936Z,33.77
2016-04-03T00:43:04.906Z,33.96
2016-04-03T00:44:04.847Z,33.67
2016-04-03T00:45:04.786Z,33.86
2016-04-03T00:46:04.758Z,33.96
2016-04-03T00:47:04.714Z,33.67
2016-04-03T00:48:04.654Z,33.86
2016-04-03T00:49:04.610Z,33.86
2016-04-03T00:50:04.565Z,34.25
2016-04-03T00:51:04.724Z,33.86
2016-04-03T00:52:04.477Z,34.15
2016-04-03T00:53:04.621Z,33.96
2016-04-03T00:54:04.374Z,33.67
2016-04-03T00:55:04.345Z,33.67
2016-04-03T00:56:04.285Z,33.77
2016-04-03T00:57:04.240Z,33.58
2016-04-03T00:58:04.196Z,33.59
2016-04-03T00:59:04.152Z,33.96
2016-04-03T01:00:04.108Z,33.58
2016-04-03T01:01:07.065Z,33.58
2016-04-03T01:02:04.004Z,33.67
2016-04-03T01:03:03.976Z,33.48
2016-04-03T01:04:04.213Z,33.58
2016-04-03T01:05:03.857Z,33.77
2016-04-03T01:06:03.828Z,34.06
2016-04-03T01:07:06.768Z,33.77
2016-04-03T01:08:03.750Z,33.86
2016-04-03T01:09:03.874Z,33.96
2016-04-03T01:10:03.626Z,34.07
2016-04-03T01:11:04.394Z,33.58
2016-04-03T01:12:03.741Z,33.67
2016-04-03T01:13:03.493Z,33.67
2016-04-03T01:14:03.449Z,33.86
2016-04-03T01:15:03.608Z,33.96
2016-04-03T01:16:06.377Z,34.06
2016-04-03T01:17:03.305Z,33.96
2016-04-03T01:18:03.261Z,33.96
2016-04-03T01:19:06.217Z,33.96
2016-04-03T01:20:06.172Z,34.25
2016-04-03T01:21:03.332Z,33.96
2016-04-03T01:22:03.084Z,33.86
2016-04-03T01:23:03.055Z,34.34
2016-04-03T01:24:02.980Z,33.96
2016-04-03T01:25:02.936Z,34.15
2016-04-03T01:26:02.892Z,34.25
2016-04-03T01:27:02.849Z,34.06
2016-04-03T01:28:05.819Z,34.15
2016-04-03T01:29:02.760Z,34.25
2016-04-03T01:30:02.902Z,34.25
2016-04-03T01:31:05.687Z,34.25
2016-04-03T01:32:02.612Z,34.06
2016-04-03T01:33:02.551Z,34.15
2016-04-03T01:34:02.523Z,33.96
2016-04-03T01:35:02.478Z,34.15
2016-04-03T01:36:02.434Z,34.15
2016-04-03T01:37:02.421Z,34.15
2016-04-03T01:38:05.330Z,34.25
2016-04-03T01:39:02.287Z,34.15
2016-04-03T01:40:02.242Z,34.25
2016-04-03T01:41:02.182Z,34.15
2016-04-03T01:42:02.434Z,34.15
2016-04-03T01:43:02.156Z,34.34
2016-04-03T01:44:02.050Z,34.25
2016-04-03T01:45:02.005Z,34.15
2016-04-03T01:46:01.945Z,34.15
2016-04-03T01:47:01.917Z,34.06
2016-04-03T01:48:01.858Z,34.06
2016-04-03T01:49:01.829Z,34.15
2016-04-03T01:50:01.769Z,34.25
2016-04-03T01:51:01.725Z,34.15
2016-04-03T01:52:01.977Z,34.06
2016-04-03T01:53:01.636Z,34.06
2016-04-03T01:54:04.592Z,34.34
2016-04-03T01:55:04.549Z,34.25
2016-04-03T01:56:01.488Z,34.15
2016-04-03T01:57:01.460Z,34.15
2016-04-03T01:58:01.399Z,34.53
2016-04-03T01:59:01.355Z,34.15
2016-04-03T02:00:01.312Z,34.15
2016-04-03T02:01:01.252Z,33.96
2016-04-03T02:02:01.224Z,34.15
2016-04-03T02:03:01.179Z,34.06
2016-04-03T02:04:01.135Z,34.15
2016-04-03T02:05:01.075Z,34.15
2016-04-03T02:06:04.046Z,34.06
2016-04-03T02:07:03.987Z,34.25
2016-04-03T02:08:03.947Z,34.53
2016-04-03T02:09:00.919Z,34.15
2016-04-03T02:10:01.140Z,34.15
2016-04-03T02:11:03.815Z,34.15
2016-04-03T02:12:00.756Z,34.15
2016-04-03T02:13:00.695Z,34.06
2016-04-03T02:14:00.698Z,34.25
2016-04-03T02:15:00.606Z,34.06
2016-04-03T02:16:00.563Z,33.96
2016-04-03T02:17:00.519Z,34.15
2016-04-03T02:18:00.489Z,34.15
2016-04-03T02:19:00.633Z,34.15
2016-04-03T02:20:00.369Z,34.15
2016-04-03T02:21:00.388Z,34.44
2016-04-03T02:22:00.313Z,33.96
2016-04-03T02:23:03.253Z,34.06
2016-04-03T02:24:00.194Z,33.96
2016-04-03T02:25:03.149Z,34.06
2016-04-03T02:26:00.121Z,34.06
2016-04-03T02:27:00.060Z,34.34
2016-04-03T02:28:00.001Z,34.15
2016-04-03T02:28:59.973Z,34.53
2016-04-03T02:30:00.226Z,34.53
2016-04-03T02:31:00.212Z,33.96
2016-04-03T02:32:02.871Z,33.86
2016-04-03T02:33:02.795Z,34.53
2016-04-03T02:34:02.798Z,34.63
2016-04-03T02:34:59.676Z,34.44
2016-04-03T02:35:59.679Z,34.44
2016-04-03T02:37:02.620Z,34.53
2016-04-03T02:37:59.543Z,34.44
2016-04-03T02:38:59.703Z,34.34
2016-04-03T02:39:59.455Z,34.44
2016-04-03T02:40:59.395Z,34.44
2016-04-03T02:41:59.570Z,34.44
2016-04-03T02:43:02.322Z,34.34
2016-04-03T02:44:02.294Z,34.25
2016-04-03T02:45:02.219Z,34.34
2016-04-03T02:46:02.190Z,34.34
2016-04-03T02:46:59.147Z,34.25
2016-04-03T02:47:59.070Z,34.34
2016-04-03T02:48:59.042Z,34.25
2016-04-03T02:49:58.982Z,34.34
2016-04-03T02:50:58.938Z,34.44
2016-04-03T02:52:01.893Z,34.34
2016-04-03T02:52:58.833Z,34.34
2016-04-03T02:54:01.821Z,34.34
2016-04-03T02:55:01.761Z,34.25
2016-04-03T02:55:58.717Z,34.53
2016-04-03T02:57:01.673Z,34.53
2016-04-03T02:58:01.910Z,34.34
2016-04-03T02:58:58.569Z,34.44
2016-04-03T02:59:58.525Z,34.44
2016-04-03T03:00:58.480Z,34.53
2016-04-03T03:02:01.452Z,34.53
2016-04-03T03:03:01.423Z,34.44
2016-04-03T03:04:01.754Z,34.44
2016-04-03T03:05:01.288Z,34.44
2016-04-03T03:05:58.243Z,34.34
2016-04-03T03:06:58.184Z,34.63
2016-04-03T03:08:01.373Z,34.44
2016-04-03T03:08:58.111Z,34.25
2016-04-03T03:09:58.051Z,34.25
2016-04-03T03:10:58.007Z,34.44
2016-04-03T03:11:57.964Z,34.25
2016-04-03T03:12:57.934Z,34.44
2016-04-03T03:13:57.890Z,34.44
2016-04-03T03:14:57.830Z,34.53
2016-04-03T03:16:00.770Z,34.25
2016-04-03T03:16:57.742Z,34.44
2016-04-03T03:17:57.729Z,34.34
2016-04-03T03:18:57.654Z,34.34
2016-04-03T03:20:00.594Z,34.44
2016-04-03T03:20:57.550Z,34.34
2016-04-03T03:22:00.506Z,34.73
2016-04-03T03:23:00.461Z,34.44
2016-04-03T03:24:09.433Z,34.53
2016-04-03T03:24:57.357Z,34.73
2016-04-03T03:25:57.313Z,34.73
2016-04-03T03:26:57.285Z,34.53
2016-04-03T03:27:57.224Z,34.44
2016-04-03T03:28:57.477Z,34.44
2016-04-03T03:29:57.121Z,34.53
2016-04-03T03:30:57.076Z,34.73
2016-04-03T03:32:00.033Z,34.25
2016-04-03T03:33:00.004Z,34.44
2016-04-03T03:33:56.944Z,34.44
2016-04-03T03:34:56.885Z,34.44
2016-04-03T03:35:56.856Z,34.63
2016-04-03T03:36:56.796Z,34.53
2016-04-03T03:37:56.751Z,34.34
2016-04-03T03:38:56.707Z,34.44
2016-04-03T03:39:59.664Z,34.53
2016-04-03T03:40:56.619Z,34.53
2016-04-03T03:41:59.653Z,34.53
2016-04-03T03:42:59.530Z,34.44
2016-04-03T03:43:56.470Z,34.34
2016-04-03T03:44:56.427Z,34.53
2016-04-03T03:45:56.383Z,34.53
2016-04-03T03:46:56.339Z,34.73
2016-04-03T03:47:56.294Z,34.34
2016-04-03T03:48:56.250Z,34.53
2016-04-03T03:49:59.205Z,34.63
2016-04-03T03:50:59.161Z,34.53
2016-04-03T03:51:56.117Z,34.44
2016-04-03T03:52:56.057Z,34.73
2016-04-03T03:53:56.013Z,34.63
2016-04-03T03:54:56.157Z,34.73
2016-04-03T03:55:55.910Z,34.53
2016-04-03T03:56:55.881Z,34.44
2016-04-03T03:57:55.838Z,34.63
2016-04-03T03:58:55.777Z,34.53
2016-04-03T03:59:55.764Z,34.73
2016-04-03T04:00:55.720Z,34.63
2016-04-03T04:01:55.644Z,34.73
2016-04-03T04:02:58.616Z,34.63
2016-04-03T04:03:55.556Z,34.63
2016-04-03T04:04:55.496Z,34.63
2016-04-03T04:05:55.670Z,34.82
2016-04-03T04:06:55.408Z,34.73
2016-04-03T04:07:58.364Z,34.53
2016-04-03T04:08:55.320Z,34.63
2016-04-03T04:09:55.260Z,34.63
2016-04-03T04:11:01.231Z,34.63
2016-04-03T04:11:55.171Z,34.73
2016-04-03T04:12:55.142Z,34.53
2016-04-03T04:13:55.098Z,34.73
2016-04-03T04:14:55.070Z,34.44
2016-04-03T04:15:55.010Z,34.63
2016-04-03T04:16:54.950Z,34.73
2016-04-03T04:17:54.890Z,34.73
2016-04-03T04:18:57.861Z,34.63
2016-04-03T04:19:54.817Z,34.73
2016-04-03T04:20:54.977Z,34.63
2016-04-03T04:21:57.714Z,34.73
2016-04-03T04:22:54.670Z,34.63
2016-04-03T04:23:54.610Z,34.44
2016-04-03T04:24:54.566Z,34.63
2016-04-03T04:25:54.521Z,34.44
2016-04-03T04:26:57.477Z,34.63
2016-04-03T04:27:57.449Z,34.63
2016-04-03T04:28:54.404Z,34.44
2016-04-03T04:29:57.361Z,34.53
2016-04-03T04:30:54.285Z,34.73
2016-04-03T04:31:57.460Z,34.73
2016-04-03T04:32:54.197Z,34.73
2016-04-03T04:33:54.668Z,34.63
2016-04-03T04:34:54.108Z,34.53
2016-04-03T04:35:54.282Z,34.73
2016-04-03T04:36:57.207Z,34.73
2016-04-03T04:37:56.976Z,34.73
2016-04-03T04:38:53.915Z,34.44
2016-04-03T04:39:56.871Z,34.63
2016-04-03T04:40:53.827Z,34.63
2016-04-03T04:41:53.830Z,34.73
2016-04-03T04:42:53.739Z,34.73
2016-04-03T04:43:53.695Z,34.73
2016-04-03T04:44:54.026Z,34.82
2016-04-03T04:45:53.591Z,34.53
2016-04-03T04:46:53.562Z,34.73
2016-04-03T04:47:53.517Z,34.63
2016-04-03T04:48:53.458Z,34.63
2016-04-03T04:49:56.414Z,34.73
2016-04-03T04:50:53.558Z,34.63
2016-04-03T04:51:53.310Z,34.63
2016-04-03T04:52:53.297Z,34.53
2016-04-03T04:53:53.221Z,34.73
2016-04-03T04:54:56.177Z,34.44
2016-04-03T04:55:56.336Z,34.73
2016-04-03T04:56:53.073Z,34.92
2016-04-03T04:57:56.045Z,34.63
2016-04-03T04:58:56.001Z,34.63
2016-04-03T04:59:53.144Z,34.63
2016-04-03T05:00:53.100Z,34.82
2016-04-03T05:01:53.149Z,34.73
2016-04-03T05:02:52.808Z,34.73
2016-04-03T05:03:52.748Z,34.73
2016-04-03T05:04:52.704Z,34.63
2016-04-03T05:05:52.676Z,34.82
2016-04-03T05:06:52.616Z,34.63
2016-04-03T05:07:52.791Z,34.63
2016-04-03T05:08:55.543Z,34.92
2016-04-03T05:09:52.468Z,34.92
2016-04-03T05:10:52.423Z,34.53
2016-04-03T05:11:52.395Z,34.53
2016-04-03T05:12:52.335Z,34.63
2016-04-03T05:13:52.291Z,34.63
2016-04-03T05:14:58.470Z,34.63
2016-04-03T05:15:55.181Z,34.63
2016-04-03T05:16:55.125Z,34.73
2016-04-03T05:17:52.085Z,34.82
2016-04-03T05:18:58.234Z,34.73
2016-04-03T05:19:51.951Z,34.63
2016-04-03T05:20:51.934Z,34.92
2016-04-03T05:21:52.136Z,34.73
2016-04-03T05:22:51.806Z,34.82
2016-04-03T05:23:51.759Z,34.73
2016-04-03T05:24:51.729Z,34.63
2016-04-03T05:25:51.652Z,34.92
2016-04-03T05:26:51.606Z,34.63
2016-04-03T05:27:51.592Z,34.53
2016-04-03T05:28:51.515Z,34.63
2016-04-03T05:29:51.470Z,34.73
2016-04-03T05:30:51.410Z,34.73
2016-04-03T05:31:51.365Z,34.82
2016-04-03T05:32:51.337Z,34.44
2016-04-03T05:33:51.276Z,34.63
2016-04-03T05:34:51.247Z,34.63
2016-04-03T05:35:54.406Z,34.53
2016-04-03T05:36:54.143Z,34.63
2016-04-03T05:37:51.082Z,34.82
2016-04-03T05:38:51.335Z,34.53
2016-04-03T05:39:51.009Z,34.53
2016-04-03T05:40:50.965Z,34.73
2016-04-03T05:41:50.906Z,34.73
2016-04-03T05:42:53.861Z,34.63
2016-04-03T05:43:53.817Z,34.92
2016-04-03T05:44:53.788Z,34.73
2016-04-03T05:45:50.709Z,34.73
2016-04-03T05:46:53.903Z,34.63
2016-04-03T05:47:53.639Z,34.73
2016-04-03T05:48:50.577Z,34.82
2016-04-03T05:49:50.533Z,34.73
2016-04-03T05:50:50.520Z,34.82
2016-04-03T05:51:50.445Z,34.63
2016-04-03T05:52:50.244Z,34.63
2016-04-03T05:53:53.359Z,34.92
2016-04-03T05:54:53.316Z,34.63
2016-04-03T05:55:50.284Z,34.73
2016-04-03T05:56:50.224Z,34.63
2016-04-03T05:57:50.164Z,34.63
2016-04-03T05:58:50.120Z,34.63
2016-04-03T05:59:50.077Z,34.73
2016-04-03T06:00:50.016Z,34.73
2016-04-03T06:01:49.988Z,34.63
2016-04-03T06:02:52.946Z,34.82
2016-04-03T06:03:52.886Z,34.82
2016-04-03T06:04:55.843Z,34.92
2016-04-03T06:05:49.811Z,35.02
2016-04-03T06:06:49.735Z,34.82
2016-04-03T06:07:49.691Z,34.92
2016-04-03T06:08:49.647Z,34.63
2016-04-03T06:09:49.837Z,34.92
2016-04-03T06:10:49.543Z,34.92
2016-04-03T06:11:49.515Z,34.82
2016-04-03T06:12:52.486Z,34.63
2016-04-03T06:13:49.442Z,34.53
2016-04-03T06:14:49.367Z,34.92
2016-04-03T06:15:49.322Z,34.73
2016-04-03T06:16:49.293Z,34.92
2016-04-03T06:17:49.437Z,34.53
2016-04-03T06:18:49.189Z,34.92
2016-04-03T06:19:49.130Z,34.92
2016-04-03T06:20:49.101Z,34.73
2016-04-03T06:21:49.073Z,34.92
2016-04-03T06:22:48.981Z,34.82
2016-04-03T06:23:51.969Z,34.92
2016-04-03T06:24:51.909Z,34.82
2016-04-03T06:25:48.865Z,34.92
2016-04-03T06:26:48.820Z,34.92
2016-04-03T06:27:48.777Z,34.82
2016-04-03T06:28:48.717Z,34.63
2016-04-03T06:29:51.688Z,35.02
2016-04-03T06:30:51.628Z,34.92
2016-04-03T06:31:51.569Z,35.21
2016-04-03T06:32:48.524Z,35.02
2016-04-03T06:33:51.496Z,34.82
2016-04-03T06:34:48.436Z,34.73
2016-04-03T06:35:48.391Z,34.73
2016-04-03T06:36:48.347Z,34.73
2016-04-03T06:37:48.288Z,34.92
2016-04-03T06:38:48.274Z,34.92
2016-04-03T06:39:48.215Z,35.11
2016-04-03T06:40:48.187Z,34.92
2016-04-03T06:41:51.126Z,34.73
2016-04-03T06:42:48.067Z,34.82
2016-04-03T06:43:48.023Z,34.82
2016-04-03T06:44:47.978Z,34.92
2016-04-03T06:45:48.137Z,34.73
2016-04-03T06:46:47.890Z,34.82
2016-04-03T06:47:50.846Z,35.11
2016-04-03T06:48:47.787Z,35.11
2016-04-03T06:49:47.586Z,34.92
2016-04-03T06:50:47.714Z,34.92
2016-04-03T06:51:50.669Z,34.82
2016-04-03T06:52:47.609Z,34.92
2016-04-03T06:53:47.550Z,35.11
2016-04-03T06:54:47.505Z,35.02
2016-04-03T06:55:47.445Z,35.11
2016-04-03T06:56:50.433Z,35.59
2016-04-03T06:57:47.389Z,35.21
2016-04-03T06:58:47.517Z,35.21
2016-04-03T06:59:47.269Z,35.4
2016-04-03T07:00:47.225Z,35.02
2016-04-03T07:01:47.039Z,34.82
2016-04-03T07:02:47.136Z,35.21
2016-04-03T07:03:47.092Z,34.92
2016-04-03T07:04:47.063Z,35.02
2016-04-03T07:05:47.004Z,35.21
2016-04-03T07:06:46.944Z,34.82
2016-04-03T07:07:46.915Z,34.82
2016-04-03T07:08:46.855Z,34.82
2016-04-03T07:09:49.811Z,35.49
2016-04-03T07:10:49.751Z,34.92
2016-04-03T07:11:46.724Z,34.92
2016-04-03T07:12:46.663Z,35.02
2016-04-03T07:13:46.619Z,35.21
2016-04-03T07:14:46.575Z,35.02
2016-04-03T07:15:46.516Z,34.92
2016-04-03T07:16:46.518Z,34.92
2016-04-03T07:17:49.458Z,34.92
2016-04-03T07:18:46.399Z,35.11
2016-04-03T07:19:49.354Z,35.11
2016-04-03T07:20:46.295Z,34.92
2016-04-03T07:21:46.235Z,35.02
2016-04-03T07:22:46.237Z,35.11
2016-04-03T07:23:46.162Z,34.92
2016-04-03T07:24:46.336Z,35.02
2016-04-03T07:25:46.058Z,35.21
2016-04-03T07:26:46.029Z,35.11
2016-04-03T07:27:45.969Z,35.21
2016-04-03T07:28:48.941Z,34.92
2016-04-03T07:29:45.881Z,35.49
2016-04-03T07:30:49.039Z,35.4
2016-04-03T07:31:45.792Z,35.59
2016-04-03T07:32:45.733Z,35.59
2016-04-03T07:33:45.798Z,35.49
2016-04-03T07:34:45.645Z,35.49
2016-04-03T07:35:45.601Z,35.21
2016-04-03T07:36:48.556Z,35.3
2016-04-03T07:37:48.512Z,35.59
2016-04-03T07:38:45.453Z,35.59
2016-04-03T07:39:45.424Z,35.59
2016-04-03T07:40:45.364Z,35.49
2016-04-03T07:41:45.319Z,35.21
2016-04-03T07:42:45.557Z,35.11
2016-04-03T07:43:45.216Z,35.4
2016-04-03T07:44:48.202Z,35.21
2016-04-03T07:45:45.143Z,35.49
2016-04-03T07:46:48.099Z,35.4
2016-04-03T07:47:45.054Z,35.49
2016-04-03T07:48:44.995Z,35.4
2016-04-03T07:49:44.950Z,35.59
2016-04-03T07:50:44.890Z,35.11
2016-04-03T07:51:45.159Z,35.4
2016-04-03T07:52:45.006Z,35.21
2016-04-03T07:53:44.774Z,35.02
2016-04-03T07:54:44.714Z,35.11
2016-04-03T07:55:44.685Z,35.11
2016-04-03T07:56:47.829Z,35.59
2016-04-03T07:57:44.565Z,35.49
2016-04-03T07:58:44.522Z,35.59
2016-04-03T07:59:44.478Z,35.21
2016-04-03T08:00:47.433Z,35.49
2016-04-03T08:01:44.373Z,35.3
2016-04-03T08:02:44.328Z,35.59
2016-04-03T08:03:53.317Z,35.49
2016-04-03T08:04:44.272Z,35.69
2016-04-03T08:05:47.212Z,35.49
2016-04-03T08:06:47.169Z,35.69
2016-04-03T08:07:44.124Z,35.49
2016-04-03T08:08:44.080Z,35.59
2016-04-03T08:09:44.035Z,35.49
2016-04-03T08:10:43.975Z,35.59
2016-04-03T08:11:43.932Z,35.59
2016-04-03T08:12:43.888Z,35.49
2016-04-03T08:13:46.843Z,35.49
2016-04-03T08:14:43.783Z,35.69
2016-04-03T08:15:46.755Z,35.49
2016-04-03T08:16:43.898Z,35.49
2016-04-03T08:17:43.651Z,35.59
2016-04-03T08:18:43.590Z,35.59
2016-04-03T08:19:43.546Z,35.59
2016-04-03T08:20:46.534Z,35.59
2016-04-03T08:21:46.458Z,35.59
2016-04-03T08:22:46.415Z,35.78
2016-04-03T08:23:46.370Z,35.49
2016-04-03T08:24:46.342Z,35.59
2016-04-03T08:25:43.266Z,35.69
2016-04-03T08:26:43.238Z,35.69
2016-04-03T08:27:46.412Z,35.69
2016-04-03T08:28:46.118Z,35.59
2016-04-03T08:29:43.590Z,35.88
2016-04-03T08:30:43.045Z,35.59
2016-04-03T08:31:43.017Z,35.59
2016-04-03T08:32:42.957Z,35.69
2016-04-03T08:33:42.912Z,35.88
2016-04-03T08:34:42.853Z,35.78
2016-04-03T08:35:42.793Z,35.69
2016-04-03T08:36:42.764Z,35.69
2016-04-03T08:37:42.720Z,35.69
2016-04-03T08:38:45.863Z,35.78
2016-04-03T08:39:42.647Z,35.69
2016-04-03T08:40:42.650Z,35.69
2016-04-03T08:41:42.574Z,35.69
2016-04-03T08:42:45.483Z,35.59
2016-04-03T08:43:45.424Z,35.69
2016-04-03T08:44:42.380Z,35.69
2016-04-03T08:45:42.351Z,35.88
2016-04-03T08:46:42.291Z,35.69
2016-04-03T08:47:42.278Z,35.97
2016-04-03T08:48:42.202Z,35.69
2016-04-03T08:49:42.159Z,35.78
2016-04-03T08:50:42.114Z,35.78
2016-04-03T08:51:42.054Z,35.78
2016-04-03T08:52:42.010Z,35.69
2016-04-03T08:53:41.950Z,35.88
2016-04-03T08:54:45.140Z,35.59
2016-04-03T08:55:41.893Z,35.69
2016-04-03T08:56:41.880Z,35.88
2016-04-03T08:57:41.774Z,35.97
2016-04-03T08:58:44.745Z,35.78
2016-04-03T08:59:41.686Z,35.69
2016-04-03T09:00:41.641Z,35.78
2016-04-03T09:01:41.800Z,35.59
2016-04-03T09:02:41.553Z,35.59
2016-04-03T09:03:44.524Z,35.69
2016-04-03T09:04:41.449Z,35.69
2016-04-03T09:05:41.420Z,35.69
2016-04-03T09:06:41.361Z,35.69
2016-04-03T09:07:41.172Z,35.78
2016-04-03T09:08:44.279Z,35.88
2016-04-03T09:09:44.219Z,35.78
2016-04-03T09:10:41.191Z,35.69
2016-04-03T09:11:44.334Z,35.88
2016-04-03T09:12:41.087Z,35.88
2016-04-03T09:13:41.245Z,35.69
2016-04-03T09:14:40.998Z,35.78
2016-04-03T09:15:40.939Z,35.97
2016-04-03T09:16:40.895Z,35.59
2016-04-03T09:17:43.851Z,35.88
2016-04-03T09:18:40.806Z,35.78
2016-04-03T09:19:40.809Z,35.78
2016-04-03T09:20:40.718Z,35.88
2016-04-03T09:21:40.658Z,35.97
2016-04-03T09:22:40.614Z,35.88
2016-04-03T09:23:40.569Z,35.88
2016-04-03T09:24:40.525Z,35.97
2016-04-03T09:25:40.465Z,35.97
2016-04-03T09:26:40.624Z,36.26
2016-04-03T09:27:39.642Z,36.07
2016-04-03T09:28:40.349Z,35.69
2016-04-03T09:29:40.305Z,35.97
2016-04-03T09:30:40.260Z,36.16
2016-04-03T09:31:40.200Z,35.97
2016-04-03T09:32:40.155Z,35.78
2016-04-03T09:33:40.097Z,36.16
2016-04-03T09:34:40.068Z,36.07
2016-04-03T09:35:40.008Z,36.07
2016-04-03T09:36:42.979Z,35.97
2016-04-03T09:37:39.919Z,35.97
2016-04-03T09:38:39.877Z,35.97
2016-04-03T09:39:39.817Z,36.07
2016-04-03T09:40:39.773Z,35.97
2016-04-03T09:41:39.729Z,36.16
2016-04-03T09:42:39.684Z,36.07
2016-04-03T09:43:45.640Z,36.07
2016-04-03T09:44:39.597Z,35.88
2016-04-03T09:45:42.553Z,36.07
2016-04-03T09:46:42.508Z,36.07
2016-04-03T09:47:42.464Z,36.07
2016-04-03T09:48:39.483Z,36.07
2016-04-03T09:49:39.360Z,35.78
2016-04-03T09:50:39.644Z,35.88
2016-04-03T09:51:39.272Z,35.97
2016-04-03T09:52:39.259Z,35.97
2016-04-03T09:53:39.184Z,35.97
2016-04-03T09:54:42.124Z,35.97
2016-04-03T09:55:39.266Z,36.16
2016-04-03T09:56:42.035Z,35.97
2016-04-03T09:57:38.975Z,36.07
2016-04-03T09:58:42.165Z,35.97
2016-04-03T09:59:38.902Z,35.97
2016-04-03T10:00:38.843Z,35.97
2016-04-03T10:01:41.799Z,35.97
2016-04-03T10:02:38.749Z,36.07
2016-04-03T10:03:38.707Z,35.97
2016-04-03T10:04:38.696Z,35.97
2016-04-03T10:05:41.677Z,35.97
2016-04-03T10:06:39.687Z,36.16
2016-04-03T10:07:38.534Z,35.88
2016-04-03T10:08:38.473Z,35.78
2016-04-03T10:09:38.414Z,36.07
2016-04-03T10:10:38.369Z,36.07
2016-04-03T10:11:38.341Z,35.97
2016-04-03T10:12:38.297Z,35.97
2016-04-03T10:13:38.221Z,35.97
2016-04-03T10:14:38.193Z,35.69
2016-04-03T10:15:38.383Z,35.69
2016-04-03T10:16:38.104Z,35.69
2016-04-03T10:17:38.060Z,35.69
2016-04-03T10:18:41.016Z,35.78
2016-04-03T10:19:37.956Z,35.69
2016-04-03T10:20:37.912Z,35.88
2016-04-03T10:21:37.867Z,35.69
2016-04-03T10:22:37.824Z,35.69
2016-04-03T10:23:37.764Z,35.78
2016-04-03T10:24:40.736Z,35.78
2016-04-03T10:25:37.691Z,35.69
2016-04-03T10:26:37.616Z,35.78
2016-04-03T10:27:37.602Z,35.69
2016-04-03T10:28:37.527Z,35.78
2016-04-03T10:29:37.686Z,35.69
2016-04-03T10:30:40.439Z,35.59
2016-04-03T10:31:37.395Z,35.78
2016-04-03T10:32:37.351Z,35.88
2016-04-03T10:33:40.338Z,35.78
2016-04-03T10:34:37.246Z,35.78
2016-04-03T10:35:37.202Z,35.78
2016-04-03T10:36:37.157Z,35.88
2016-04-03T10:37:37.176Z,35.69
2016-04-03T10:38:37.070Z,35.78
2016-04-03T10:39:37.010Z,35.78
2016-04-03T10:40:36.982Z,35.69
2016-04-03T10:41:36.937Z,35.88
2016-04-03T10:42:42.893Z,35.88
2016-04-03T10:43:37.037Z,35.69
2016-04-03T10:44:36.805Z,35.78
2016-04-03T10:45:36.745Z,35.88
2016-04-03T10:46:36.701Z,35.69
2016-04-03T10:47:39.657Z,35.69
2016-04-03T10:48:36.612Z,35.78
2016-04-03T10:49:39.568Z,35.88
2016-04-03T10:50:36.508Z,35.78
2016-04-03T10:51:39.464Z,35.78
2016-04-03T10:52:39.435Z,35.88
2016-04-03T10:53:36.360Z,35.69
2016-04-03T10:54:36.347Z,35.59
2016-04-03T10:55:36.272Z,35.78
2016-04-03T10:56:36.228Z,35.69
2016-04-03T10:57:36.183Z,35.78
2016-04-03T10:58:36.139Z,35.78
2016-04-03T10:59:36.094Z,35.88
2016-04-03T11:00:36.051Z,35.78
2016-04-03T11:01:35.990Z,35.78
2016-04-03T11:02:35.946Z,35.78
2016-04-03T11:03:35.902Z,35.78
2016-04-03T11:04:35.858Z,35.78
2016-04-03T11:05:35.815Z,35.69
2016-04-03T11:06:35.755Z,35.69
2016-04-03T11:07:35.734Z,35.88
2016-04-03T11:08:35.673Z,35.69
2016-04-03T11:09:35.614Z,35.69
2016-04-03T11:10:35.585Z,35.69
2016-04-03T11:11:38.542Z,35.69
2016-04-03T11:12:35.498Z,35.78
2016-04-03T11:13:35.453Z,35.69
2016-04-03T11:14:38.706Z,35.69
2016-04-03T11:15:35.348Z,35.59
2016-04-03T11:16:35.320Z,35.78
2016-04-03T11:17:41.275Z,35.78
2016-04-03T11:18:41.216Z,35.88
2016-04-03T11:19:35.156Z,35.69
2016-04-03T11:20:38.128Z,35.69
2016-04-03T11:21:35.052Z,35.59
2016-04-03T11:22:38.227Z,35.78
2016-04-03T11:23:38.277Z,35.69
2016-04-03T11:24:34.982Z,35.59
2016-04-03T11:25:34.891Z,35.69
2016-04-03T11:26:37.832Z,35.78
2016-04-03T11:27:34.788Z,35.59
2016-04-03T11:28:34.744Z,35.69
2016-04-03T11:29:34.699Z,35.88
2016-04-03T11:30:34.639Z,35.59
2016-04-03T11:31:34.611Z,35.69
2016-04-03T11:32:34.551Z,35.69
2016-04-03T11:33:34.507Z,35.78
2016-04-03T11:34:34.462Z,35.69
2016-04-03T11:35:34.418Z,35.78
2016-04-03T11:36:37.374Z,35.88
2016-04-03T11:37:34.330Z,35.88
2016-04-03T11:38:34.271Z,35.88
2016-04-03T11:39:34.429Z,35.97
2016-04-03T11:40:34.073Z,36.07
2016-04-03T11:41:34.122Z,35.88
2016-04-03T11:42:34.125Z,35.97
2016-04-03T11:43:43.048Z,35.97
2016-04-03T11:44:33.989Z,35.69
2016-04-03T11:45:33.945Z,35.59
2016-04-03T11:46:33.917Z,35.78
2016-04-03T11:47:33.857Z,35.88
2016-04-03T11:48:33.828Z,35.88
2016-04-03T11:49:36.800Z,35.78
2016-04-03T11:50:33.709Z,35.69
2016-04-03T11:51:33.681Z,35.78
2016-04-03T11:52:33.636Z,35.78
2016-04-03T11:53:36.561Z,35.69
2016-04-03T11:54:36.533Z,35.78
2016-04-03T11:55:36.488Z,35.69
2016-04-03T11:56:33.444Z,35.88
2016-04-03T11:57:33.399Z,35.69
2016-04-03T11:58:33.339Z,35.59
2016-04-03T11:59:33.326Z,35.69
2016-04-03T12:00:33.266Z,35.88
2016-04-03T12:01:33.427Z,35.97
2016-04-03T12:02:36.163Z,35.78
2016-04-03T12:03:33.134Z,35.78
2016-04-03T12:04:33.060Z,35.88
2016-04-03T12:05:33.016Z,35.97
2016-04-03T12:06:32.971Z,35.88
2016-04-03T12:07:32.926Z,35.88
2016-04-03T12:08:35.898Z,35.69
2016-04-03T12:09:32.682Z,35.88
2016-04-03T12:10:32.779Z,36.26
2016-04-03T12:11:32.735Z,35.97
2016-04-03T12:12:32.690Z,35.88
2016-04-03T12:13:35.646Z,36.07
2016-04-03T12:14:32.617Z,35.97
2016-04-03T12:15:35.557Z,35.88
2016-04-03T12:16:32.513Z,35.69
2016-04-03T12:17:32.454Z,35.88
2016-04-03T12:18:32.425Z,35.88
2016-04-03T12:19:32.411Z,35.88
2016-04-03T12:20:35.353Z,35.88
2016-04-03T12:21:32.276Z,35.88
2016-04-03T12:22:32.233Z,35.88
2016-04-03T12:23:32.188Z,35.78
2016-04-03T12:24:32.128Z,35.88
2016-04-03T12:25:32.084Z,36.26
2016-04-03T12:26:32.039Z,36.07
2016-04-03T12:27:31.997Z,35.69
2016-04-03T12:28:31.936Z,35.69
2016-04-03T12:29:31.908Z,35.78
2016-04-03T12:30:31.848Z,35.78
2016-04-03T12:31:34.788Z,35.78
2016-04-03T12:32:31.760Z,35.59
2016-04-03T12:33:31.700Z,35.69
2016-04-03T12:34:31.765Z,35.69
2016-04-03T12:35:31.612Z,35.69
2016-04-03T12:36:31.567Z,35.69
2016-04-03T12:37:31.523Z,35.69
2016-04-03T12:38:31.494Z,35.88
2016-04-03T12:39:31.434Z,35.97
2016-04-03T12:40:31.375Z,35.69
2016-04-03T12:41:31.347Z,35.88
2016-04-03T12:42:31.302Z,35.78
2016-04-03T12:43:31.243Z,35.78
2016-04-03T12:44:31.214Z,35.78
2016-04-03T12:45:31.138Z,35.88
2016-04-03T12:46:34.391Z,35.88
2016-04-03T12:47:34.097Z,35.97
2016-04-03T12:48:31.007Z,35.78
2016-04-03T12:49:30.962Z,36.07
2016-04-03T12:50:30.965Z,35.69
2016-04-03T12:51:31.077Z,35.97
2016-04-03T12:52:30.829Z,35.97